sensor_id;sensor_type;location;lat;lon;timestamp;temperature;humidity
6627;DHT22;3349;49.830;8.748;2022-11-15T00:02:19;10.60;99.90
6627;DHT22;3349;49.830;8.748;2022-11-15T00:04:45;10.60;99.90
6627;DHT22;3349;49.830;8.748;2022-11-15T00:07:12;10.60;99.90
6627;DHT22;3349;49.830;8.748;2022-11-15T00:09:39;10.50;99.90
6627;DHT22;3349;49.830;8.748;2022-11-15T00:12:05;10.40;99.90
6627;DHT22;3349;49.830;8.748;2022-11-15T00:14:34;10.30;99.90
6627;DHT22;3349;49.830;8.748;2022-11-15T00:17:01;10.20;99.90
6627;DHT22;3349;49.830;8.748;2022-11-15T00:19:28;10.10;99.90
6627;DHT22;3349;49.830;8.748;2022-11-15T00:21:54;10.10;99.90
6627;DHT22;3349;49.830;8.748;2022-11-15T00:24:21;10.00;99.90
6627;DHT22;3349;49.830;8.748;2022-11-15T00:26:48;10.00;99.90
6627;DHT22;3349;49.830;8.748;2022-11-15T00:29:14;10.00;99.90
6627;DHT22;3349;49.830;8.748;2022-11-15T00:31:42;10.00;99.90
6627;DHT22;3349;49.830;8.748;2022-11-15T00:34:09;10.00;99.90
6627;DHT22;3349;49.830;8.748;2022-11-15T00:36:36;10.00;99.90
6627;DHT22;3349;49.830;8.748;2022-11-15T00:39:03;10.00;99.90
6627;DHT22;3349;49.830;8.748;2022-11-15T00:41:30;10.00;99.90
6627;DHT22;3349;49.830;8.748;2022-11-15T00:43:57;10.00;99.90
6627;DHT22;3349;49.830;8.748;2022-11-15T00:46:23;10.00;99.90
6627;DHT22;3349;49.830;8.748;2022-11-15T00:48:51;10.00;99.90
6627;DHT22;3349;49.830;8.748;2022-11-15T00:51:18;10.00;99.90
6627;DHT22;3349;49.830;8.748;2022-11-15T00:53:45;10.00;99.90
6627;DHT22;3349;49.830;8.748;2022-11-15T00:56:12;10.00;99.90
6627;DHT22;3349;49.830;8.748;2022-11-15T00:58:39;10.00;99.90
6627;DHT22;3349;49.830;8.748;2022-11-15T01:01:07;10.00;99.90
6627;DHT22;3349;49.830;8.748;2022-11-15T01:03:34;10.10;99.90
6627;DHT22;3349;49.830;8.748;2022-11-15T01:06:02;10.10;99.90
6627;DHT22;3349;49.830;8.748;2022-11-15T01:08:29;10.20;99.90
6627;DHT22;3349;49.830;8.748;2022-11-15T01:11:00;10.20;99.90
6627;DHT22;3349;49.830;8.748;2022-11-15T01:13:30;10.20;99.90
6627;DHT22;3349;49.830;8.748;2022-11-15T01:15:56;10.20;99.90
6627;DHT22;3349;49.830;8.748;2022-11-15T01:18:23;10.20;99.90
6627;DHT22;3349;49.830;8.748;2022-11-15T01:20:50;10.20;99.90
6627;DHT22;3349;49.830;8.748;2022-11-15T01:23:18;10.30;99.90
6627;DHT22;3349;49.830;8.748;2022-11-15T01:25:45;10.30;99.90
6627;DHT22;3349;49.830;8.748;2022-11-15T01:28:11;10.30;99.90
6627;DHT22;3349;49.830;8.748;2022-11-15T01:30:38;10.20;99.90
6627;DHT22;3349;49.830;8.748;2022-11-15T01:33:05;10.20;99.90
6627;DHT22;3349;49.830;8.748;2022-11-15T01:35:32;10.10;99.90
6627;DHT22;3349;49.830;8.748;2022-11-15T01:37:58;10.00;99.90
6627;DHT22;3349;49.830;8.748;2022-11-15T01:40:26;9.90;99.90
6627;DHT22;3349;49.830;8.748;2022-11-15T01:42:53;9.80;99.90
6627;DHT22;3349;49.830;8.748;2022-11-15T01:45:20;9.80;99.90
6627;DHT22;3349;49.830;8.748;2022-11-15T01:47:50;9.70;99.90
6627;DHT22;3349;49.830;8.748;2022-11-15T01:50:21;9.60;99.90
6627;DHT22;3349;49.830;8.748;2022-11-15T01:52:48;9.50;99.90
6627;DHT22;3349;49.830;8.748;2022-11-15T01:55:18;9.40;99.90
6627;DHT22;3349;49.830;8.748;2022-11-15T01:57:48;9.30;99.90
6627;DHT22;3349;49.830;8.748;2022-11-15T02:00:17;9.30;99.90
6627;DHT22;3349;49.830;8.748;2022-11-15T02:02:43;9.30;99.90
6627;DHT22;3349;49.830;8.748;2022-11-15T02:05:10;9.40;99.90
6627;DHT22;3349;49.830;8.748;2022-11-15T02:07:37;9.40;99.90
6627;DHT22;3349;49.830;8.748;2022-11-15T02:10:07;9.50;99.90
6627;DHT22;3349;49.830;8.748;2022-11-15T02:12:34;9.60;99.90
6627;DHT22;3349;49.830;8.748;2022-11-15T02:15:04;9.60;99.90
6627;DHT22;3349;49.830;8.748;2022-11-15T02:17:46;9.70;99.90
6627;DHT22;3349;49.830;8.748;2022-11-15T02:23:55;9.90;99.90
6627;DHT22;3349;49.830;8.748;2022-11-15T02:27:00;10.10;99.90
6627;DHT22;3349;49.830;8.748;2022-11-15T02:29:45;10.30;99.90
6627;DHT22;3349;49.830;8.748;2022-11-15T02:32:19;10.40;99.90
6627;DHT22;3349;49.830;8.748;2022-11-15T02:34:52;10.50;99.90
6627;DHT22;3349;49.830;8.748;2022-11-15T02:37:26;10.70;99.90
6627;DHT22;3349;49.830;8.748;2022-11-15T02:40:03;10.70;99.90
6627;DHT22;3349;49.830;8.748;2022-11-15T02:42:36;10.70;99.90
6627;DHT22;3349;49.830;8.748;2022-11-15T02:45:24;10.60;99.90
6627;DHT22;3349;49.830;8.748;2022-11-15T02:47:57;10.60;99.90
6627;DHT22;3349;49.830;8.748;2022-11-15T02:50:28;10.60;99.90
6627;DHT22;3349;49.830;8.748;2022-11-15T02:52:56;10.60;99.90
6627;DHT22;3349;49.830;8.748;2022-11-15T02:55:28;10.60;99.70
6627;DHT22;3349;49.830;8.748;2022-11-15T02:58:14;10.60;99.40
6627;DHT22;3349;49.830;8.748;2022-11-15T03:00:48;10.70;98.00
6627;DHT22;3349;49.830;8.748;2022-11-15T03:03:32;10.70;97.30
6627;DHT22;3349;49.830;8.748;2022-11-15T03:06:09;10.70;96.60
6627;DHT22;3349;49.830;8.748;2022-11-15T03:08:45;10.70;96.80
6627;DHT22;3349;49.830;8.748;2022-11-15T03:11:15;10.70;96.50
6627;DHT22;3349;49.830;8.748;2022-11-15T03:13:47;10.60;96.30
6627;DHT22;3349;49.830;8.748;2022-11-15T03:16:20;10.50;96.20
6627;DHT22;3349;49.830;8.748;2022-11-15T03:18:53;10.50;96.80
6627;DHT22;3349;49.830;8.748;2022-11-15T03:21:22;10.40;96.70
6627;DHT22;3349;49.830;8.748;2022-11-15T03:23:51;10.40;97.10
6627;DHT22;3349;49.830;8.748;2022-11-15T03:26:21;10.20;97.30
6627;DHT22;3349;49.830;8.748;2022-11-15T03:28:53;10.10;98.10
6627;DHT22;3349;49.830;8.748;2022-11-15T03:31:22;10.00;99.00
6627;DHT22;3349;49.830;8.748;2022-11-15T03:34:15;9.90;99.90
6627;DHT22;3349;49.830;8.748;2022-11-15T03:36:45;9.80;99.90
6627;DHT22;3349;49.830;8.748;2022-11-15T03:39:14;9.80;99.90
6627;DHT22;3349;49.830;8.748;2022-11-15T03:41:46;9.80;99.90
6627;DHT22;3349;49.830;8.748;2022-11-15T03:44:19;9.80;99.90
6627;DHT22;3349;49.830;8.748;2022-11-15T03:46:56;9.80;99.90
6627;DHT22;3349;49.830;8.748;2022-11-15T03:49:28;9.70;99.90
6627;DHT22;3349;49.830;8.748;2022-11-15T03:51:57;9.80;99.90
6627;DHT22;3349;49.830;8.748;2022-11-15T03:54:24;9.80;99.90
6627;DHT22;3349;49.830;8.748;2022-11-15T03:56:50;9.80;99.90
6627;DHT22;3349;49.830;8.748;2022-11-15T03:59:17;9.80;99.90
6627;DHT22;3349;49.830;8.748;2022-11-15T04:01:44;9.80;99.90
6627;DHT22;3349;49.830;8.748;2022-11-15T04:04:11;9.80;99.90
6627;DHT22;3349;49.830;8.748;2022-11-15T04:06:39;9.80;99.90
6627;DHT22;3349;49.830;8.748;2022-11-15T04:09:05;9.90;99.90
6627;DHT22;3349;49.830;8.748;2022-11-15T04:11:32;9.90;99.90
6627;DHT22;3349;49.830;8.748;2022-11-15T04:13:59;9.90;99.90
6627;DHT22;3349;49.830;8.748;2022-11-15T04:16:26;9.90;99.90
6627;DHT22;3349;49.830;8.748;2022-11-15T04:18:52;9.90;99.90
6627;DHT22;3349;49.830;8.748;2022-11-15T04:21:33;9.90;99.90
6627;DHT22;3349;49.830;8.748;2022-11-15T04:24:18;9.90;99.90
6627;DHT22;3349;49.830;8.748;2022-11-15T04:26:45;9.90;99.90
6627;DHT22;3349;49.830;8.748;2022-11-15T04:29:12;9.90;99.90
6627;DHT22;3349;49.830;8.748;2022-11-15T04:31:56;9.90;99.90
6627;DHT22;3349;49.830;8.748;2022-11-15T04:34:23;9.90;99.90
6627;DHT22;3349;49.830;8.748;2022-11-15T04:36:49;9.90;99.90
6627;DHT22;3349;49.830;8.748;2022-11-15T04:39:35;9.90;99.90
6627;DHT22;3349;49.830;8.748;2022-11-15T04:42:02;9.90;99.90
6627;DHT22;3349;49.830;8.748;2022-11-15T04:44:29;9.90;99.90
6627;DHT22;3349;49.830;8.748;2022-11-15T04:46:56;10.00;99.90
6627;DHT22;3349;49.830;8.748;2022-11-15T04:49:23;10.00;99.90
6627;DHT22;3349;49.830;8.748;2022-11-15T04:51:49;10.00;99.90
6627;DHT22;3349;49.830;8.748;2022-11-15T04:54:16;10.00;99.90
6627;DHT22;3349;49.830;8.748;2022-11-15T04:56:44;10.00;99.90
6627;DHT22;3349;49.830;8.748;2022-11-15T04:59:11;10.10;99.90
6627;DHT22;3349;49.830;8.748;2022-11-15T05:01:38;10.10;99.90
6627;DHT22;3349;49.830;8.748;2022-11-15T05:04:04;10.10;99.90
6627;DHT22;3349;49.830;8.748;2022-11-15T05:06:47;10.10;99.90
6627;DHT22;3349;49.830;8.748;2022-11-15T05:09:14;10.30;99.90
6627;DHT22;3349;49.830;8.748;2022-11-15T05:11:41;10.30;99.90
6627;DHT22;3349;49.830;8.748;2022-11-15T05:14:09;10.50;99.90
6627;DHT22;3349;49.830;8.748;2022-11-15T05:16:36;10.60;99.90
6627;DHT22;3349;49.830;8.748;2022-11-15T05:19:03;10.60;99.90
6627;DHT22;3349;49.830;8.748;2022-11-15T05:21:30;10.70;99.90
6627;DHT22;3349;49.830;8.748;2022-11-15T05:23:57;10.80;99.90
6627;DHT22;3349;49.830;8.748;2022-11-15T05:26:25;10.80;99.90
6627;DHT22;3349;49.830;8.748;2022-11-15T05:28:53;10.80;99.90
6627;DHT22;3349;49.830;8.748;2022-11-15T05:31:22;10.80;99.90
6627;DHT22;3349;49.830;8.748;2022-11-15T05:33:49;10.90;99.90
6627;DHT22;3349;49.830;8.748;2022-11-15T05:36:18;10.90;99.90
6627;DHT22;3349;49.830;8.748;2022-11-15T05:38:47;11.00;99.90
6627;DHT22;3349;49.830;8.748;2022-11-15T05:41:15;11.00;99.90
6627;DHT22;3349;49.830;8.748;2022-11-15T05:43:44;11.00;99.90
6627;DHT22;3349;49.830;8.748;2022-11-15T05:46:12;11.00;99.90
6627;DHT22;3349;49.830;8.748;2022-11-15T05:48:43;11.00;99.90
6627;DHT22;3349;49.830;8.748;2022-11-15T05:51:12;11.10;99.90
6627;DHT22;3349;49.830;8.748;2022-11-15T05:53:40;11.10;99.90
6627;DHT22;3349;49.830;8.748;2022-11-15T05:56:09;11.00;99.90
6627;DHT22;3349;49.830;8.748;2022-11-15T05:58:36;11.10;99.90
6627;DHT22;3349;49.830;8.748;2022-11-15T06:01:04;11.00;99.90
6627;DHT22;3349;49.830;8.748;2022-11-15T06:03:30;11.00;99.90
6627;DHT22;3349;49.830;8.748;2022-11-15T06:05:58;11.00;99.90
6627;DHT22;3349;49.830;8.748;2022-11-15T06:08:25;10.90;99.90
6627;DHT22;3349;49.830;8.748;2022-11-15T06:10:52;10.90;99.90
6627;DHT22;3349;49.830;8.748;2022-11-15T06:13:19;10.90;99.90
6627;DHT22;3349;49.830;8.748;2022-11-15T06:15:45;10.80;99.90
6627;DHT22;3349;49.830;8.748;2022-11-15T06:18:12;10.80;99.90
6627;DHT22;3349;49.830;8.748;2022-11-15T06:20:39;10.80;99.90
6627;DHT22;3349;49.830;8.748;2022-11-15T06:23:07;10.80;99.90
6627;DHT22;3349;49.830;8.748;2022-11-15T06:25:33;10.70;99.90
6627;DHT22;3349;49.830;8.748;2022-11-15T06:28:00;10.70;99.90
6627;DHT22;3349;49.830;8.748;2022-11-15T06:30:27;10.70;99.90
6627;DHT22;3349;49.830;8.748;2022-11-15T06:32:59;10.60;99.90
6627;DHT22;3349;49.830;8.748;2022-11-15T06:35:27;10.60;99.90
6627;DHT22;3349;49.830;8.748;2022-11-15T06:37:54;10.60;99.90
6627;DHT22;3349;49.830;8.748;2022-11-15T06:40:22;10.60;99.90
6627;DHT22;3349;49.830;8.748;2022-11-15T06:42:48;10.50;99.90
6627;DHT22;3349;49.830;8.748;2022-11-15T06:45:15;10.50;99.90
6627;DHT22;3349;49.830;8.748;2022-11-15T06:47:45;10.50;99.90
6627;DHT22;3349;49.830;8.748;2022-11-15T06:50:13;10.50;99.90
6627;DHT22;3349;49.830;8.748;2022-11-15T06:52:39;10.50;99.90
6627;DHT22;3349;49.830;8.748;2022-11-15T06:55:07;10.50;99.90
6627;DHT22;3349;49.830;8.748;2022-11-15T06:57:36;10.50;99.90
6627;DHT22;3349;49.830;8.748;2022-11-15T07:00:04;10.40;99.90
6627;DHT22;3349;49.830;8.748;2022-11-15T07:02:31;10.40;99.90
6627;DHT22;3349;49.830;8.748;2022-11-15T07:04:58;10.30;99.90
6627;DHT22;3349;49.830;8.748;2022-11-15T07:07:24;10.20;99.90
6627;DHT22;3349;49.830;8.748;2022-11-15T07:09:51;10.10;99.90
6627;DHT22;3349;49.830;8.748;2022-11-15T07:12:18;10.10;99.90
6627;DHT22;3349;49.830;8.748;2022-11-15T07:14:46;10.10;99.90
6627;DHT22;3349;49.830;8.748;2022-11-15T07:17:12;10.10;99.90
6627;DHT22;3349;49.830;8.748;2022-11-15T07:19:39;10.10;99.90
6627;DHT22;3349;49.830;8.748;2022-11-15T07:22:06;10.10;99.90
6627;DHT22;3349;49.830;8.748;2022-11-15T07:24:33;10.10;99.90
6627;DHT22;3349;49.830;8.748;2022-11-15T07:26:59;10.20;99.90
6627;DHT22;3349;49.830;8.748;2022-11-15T07:29:26;10.30;99.90
6627;DHT22;3349;49.830;8.748;2022-11-15T07:31:54;10.30;99.90
6627;DHT22;3349;49.830;8.748;2022-11-15T07:34:21;10.40;99.90
6627;DHT22;3349;49.830;8.748;2022-11-15T07:36:49;10.50;99.90
6627;DHT22;3349;49.830;8.748;2022-11-15T07:39:15;10.60;99.90
6627;DHT22;3349;49.830;8.748;2022-11-15T07:41:42;10.60;99.90
6627;DHT22;3349;49.830;8.748;2022-11-15T07:44:10;10.70;99.90
6627;DHT22;3349;49.830;8.748;2022-11-15T07:46:36;10.80;99.90
6627;DHT22;3349;49.830;8.748;2022-11-15T07:49:04;10.80;99.90
6627;DHT22;3349;49.830;8.748;2022-11-15T07:51:31;10.80;99.90
6627;DHT22;3349;49.830;8.748;2022-11-15T07:53:58;10.90;99.90
6627;DHT22;3349;49.830;8.748;2022-11-15T07:56:25;10.90;99.90
6627;DHT22;3349;49.830;8.748;2022-11-15T07:58:51;11.00;99.90
6627;DHT22;3349;49.830;8.748;2022-11-15T08:01:18;11.00;99.90
6627;DHT22;3349;49.830;8.748;2022-11-15T08:03:45;11.10;99.90
6627;DHT22;3349;49.830;8.748;2022-11-15T08:06:13;11.10;99.90
6627;DHT22;3349;49.830;8.748;2022-11-15T08:08:40;11.20;99.90
6627;DHT22;3349;49.830;8.748;2022-11-15T08:11:06;11.20;99.90
6627;DHT22;3349;49.830;8.748;2022-11-15T08:13:33;11.30;99.90
6627;DHT22;3349;49.830;8.748;2022-11-15T08:16:02;11.40;99.90
6627;DHT22;3349;49.830;8.748;2022-11-15T08:18:30;11.40;99.90
6627;DHT22;3349;49.830;8.748;2022-11-15T08:20:59;11.50;99.90
6627;DHT22;3349;49.830;8.748;2022-11-15T08:23:27;11.60;99.90
6627;DHT22;3349;49.830;8.748;2022-11-15T08:25:59;11.70;99.90
6627;DHT22;3349;49.830;8.748;2022-11-15T08:28:26;11.70;99.90
6627;DHT22;3349;49.830;8.748;2022-11-15T08:30:53;11.80;99.90
6627;DHT22;3349;49.830;8.748;2022-11-15T08:33:19;11.80;99.90
6627;DHT22;3349;49.830;8.748;2022-11-15T08:35:46;11.90;99.90
6627;DHT22;3349;49.830;8.748;2022-11-15T08:38:13;11.90;99.90
6627;DHT22;3349;49.830;8.748;2022-11-15T08:40:42;12.00;99.90
6627;DHT22;3349;49.830;8.748;2022-11-15T08:43:08;12.00;99.90
6627;DHT22;3349;49.830;8.748;2022-11-15T08:45:35;12.10;99.90
6627;DHT22;3349;49.830;8.748;2022-11-15T08:48:03;12.10;99.90
6627;DHT22;3349;49.830;8.748;2022-11-15T08:50:30;12.20;99.90
6627;DHT22;3349;49.830;8.748;2022-11-15T08:52:57;12.20;99.90
6627;DHT22;3349;49.830;8.748;2022-11-15T08:55:24;12.30;99.90
6627;DHT22;3349;49.830;8.748;2022-11-15T08:57:52;12.30;99.90
6627;DHT22;3349;49.830;8.748;2022-11-15T09:00:19;12.40;99.90
6627;DHT22;3349;49.830;8.748;2022-11-15T09:02:46;12.50;99.90
6627;DHT22;3349;49.830;8.748;2022-11-15T09:05:13;12.50;99.90
6627;DHT22;3349;49.830;8.748;2022-11-15T09:07:40;12.60;99.90
6627;DHT22;3349;49.830;8.748;2022-11-15T09:10:08;12.70;99.90
6627;DHT22;3349;49.830;8.748;2022-11-15T09:12:35;12.80;99.90
6627;DHT22;3349;49.830;8.748;2022-11-15T09:15:03;12.90;99.90
6627;DHT22;3349;49.830;8.748;2022-11-15T09:17:30;13.00;99.90
6627;DHT22;3349;49.830;8.748;2022-11-15T09:19:57;13.00;99.90
6627;DHT22;3349;49.830;8.748;2022-11-15T09:22:24;13.10;99.90
6627;DHT22;3349;49.830;8.748;2022-11-15T09:24:50;13.10;99.90
6627;DHT22;3349;49.830;8.748;2022-11-15T09:27:17;13.30;99.90
6627;DHT22;3349;49.830;8.748;2022-11-15T09:29:44;13.30;99.90
6627;DHT22;3349;49.830;8.748;2022-11-15T09:32:11;13.40;99.00
6627;DHT22;3349;49.830;8.748;2022-11-15T09:34:38;13.40;99.10
6627;DHT22;3349;49.830;8.748;2022-11-15T09:37:05;13.40;97.80
6627;DHT22;3349;49.830;8.748;2022-11-15T09:39:32;13.30;97.20
6627;DHT22;3349;49.830;8.748;2022-11-15T09:42:10;13.30;97.20
6627;DHT22;3349;49.830;8.748;2022-11-15T09:44:49;13.30;97.80
6627;DHT22;3349;49.830;8.748;2022-11-15T09:47:38;13.20;98.40
6627;DHT22;3349;49.830;8.748;2022-11-15T09:50:10;13.30;99.10
6627;DHT22;3349;49.830;8.748;2022-11-15T09:52:41;13.30;99.60
6627;DHT22;3349;49.830;8.748;2022-11-15T09:55:10;13.40;99.90
6627;DHT22;3349;49.830;8.748;2022-11-15T09:57:44;13.40;99.70
6627;DHT22;3349;49.830;8.748;2022-11-15T10:00:18;13.40;99.70
6627;DHT22;3349;49.830;8.748;2022-11-15T10:03:10;13.70;99.80
6627;DHT22;3349;49.830;8.748;2022-11-15T10:05:39;13.70;99.10
6627;DHT22;3349;49.830;8.748;2022-11-15T10:08:20;13.90;98.20
6627;DHT22;3349;49.830;8.748;2022-11-15T10:10:52;14.00;97.40
6627;DHT22;3349;49.830;8.748;2022-11-15T10:13:24;13.90;96.90
6627;DHT22;3349;49.830;8.748;2022-11-15T10:15:53;14.00;97.00
6627;DHT22;3349;49.830;8.748;2022-11-15T10:18:26;14.00;96.80
6627;DHT22;3349;49.830;8.748;2022-11-15T10:20:59;13.90;96.20
6627;DHT22;3349;49.830;8.748;2022-11-15T10:23:27;14.00;96.10
6627;DHT22;3349;49.830;8.748;2022-11-15T10:25:57;13.90;96.20
6627;DHT22;3349;49.830;8.748;2022-11-15T10:28:27;13.90;96.60
6627;DHT22;3349;49.830;8.748;2022-11-15T10:30:55;13.90;96.10
6627;DHT22;3349;49.830;8.748;2022-11-15T10:33:31;13.80;95.50
6627;DHT22;3349;49.830;8.748;2022-11-15T10:36:16;13.80;96.10
6627;DHT22;3349;49.830;8.748;2022-11-15T10:38:57;13.80;95.80
6627;DHT22;3349;49.830;8.748;2022-11-15T10:41:39;13.80;96.10
6627;DHT22;3349;49.830;8.748;2022-11-15T10:44:25;13.60;96.80
6627;DHT22;3349;49.830;8.748;2022-11-15T10:50:03;13.70;97.90
6627;DHT22;3349;49.830;8.748;2022-11-15T10:52:31;13.70;97.90
6627;DHT22;3349;49.830;8.748;2022-11-15T10:55:03;13.70;97.90
6627;DHT22;3349;49.830;8.748;2022-11-15T10:57:33;13.70;97.90
6627;DHT22;3349;49.830;8.748;2022-11-15T11:00:04;13.70;97.40
6627;DHT22;3349;49.830;8.748;2022-11-15T11:02:34;13.70;96.10
6627;DHT22;3349;49.830;8.748;2022-11-15T11:05:04;13.70;96.10
6627;DHT22;3349;49.830;8.748;2022-11-15T11:07:33;13.70;96.80
6627;DHT22;3349;49.830;8.748;2022-11-15T11:10:02;13.60;95.40
6627;DHT22;3349;49.830;8.748;2022-11-15T11:12:31;13.70;95.10
6627;DHT22;3349;49.830;8.748;2022-11-15T11:14:59;13.60;94.90
6627;DHT22;3349;49.830;8.748;2022-11-15T11:17:36;13.60;96.00
6627;DHT22;3349;49.830;8.748;2022-11-15T11:20:11;13.90;96.20
6627;DHT22;3349;49.830;8.748;2022-11-15T11:22:46;15.00;91.10
6627;DHT22;3349;49.830;8.748;2022-11-15T11:25:22;15.60;82.60
6627;DHT22;3349;49.830;8.748;2022-11-15T11:28:14;15.80;76.70
6627;DHT22;3349;49.830;8.748;2022-11-15T11:30:50;16.00;78.00
6627;DHT22;3349;49.830;8.748;2022-11-15T11:33:24;16.70;75.30
6627;DHT22;3349;49.830;8.748;2022-11-15T11:36:03;17.80;69.40
6627;DHT22;3349;49.830;8.748;2022-11-15T11:38:50;18.20;63.40
6627;DHT22;3349;49.830;8.748;2022-11-15T11:41:29;18.20;60.40
6627;DHT22;3349;49.830;8.748;2022-11-15T11:44:11;18.20;61.00
6627;DHT22;3349;49.830;8.748;2022-11-15T11:46:51;17.90;60.30
6627;DHT22;3349;49.830;8.748;2022-11-15T11:49:25;17.30;61.70
6627;DHT22;3349;49.830;8.748;2022-11-15T11:52:01;17.10;63.30
6627;DHT22;3349;49.830;8.748;2022-11-15T11:54:34;17.50;63.30
6627;DHT22;3349;49.830;8.748;2022-11-15T11:57:04;18.40;60.50
6627;DHT22;3349;49.830;8.748;2022-11-15T11:59:36;18.80;57.80
6627;DHT22;3349;49.830;8.748;2022-11-15T12:02:12;18.70;57.20
6627;DHT22;3349;49.830;8.748;2022-11-15T12:04:44;18.30;57.30
6627;DHT22;3349;49.830;8.748;2022-11-15T12:07:19;18.20;57.70
6627;DHT22;3349;49.830;8.748;2022-11-15T12:09:52;18.70;56.10
6627;DHT22;3349;49.830;8.748;2022-11-15T12:12:25;18.70;56.10
6627;DHT22;3349;49.830;8.748;2022-11-15T12:14:56;18.40;55.70
6627;DHT22;3349;49.830;8.748;2022-11-15T12:17:25;18.00;56.20
6627;DHT22;3349;49.830;8.748;2022-11-15T12:19:56;17.60;57.00
6627;DHT22;3349;49.830;8.748;2022-11-15T12:22:38;17.60;58.20
6627;DHT22;3349;49.830;8.748;2022-11-15T12:25:14;17.50;58.40
6627;DHT22;3349;49.830;8.748;2022-11-15T12:27:48;17.90;57.40
6627;DHT22;3349;49.830;8.748;2022-11-15T12:30:18;18.20;55.30
6627;DHT22;3349;49.830;8.748;2022-11-15T12:32:54;18.10;56.70
6627;DHT22;3349;49.830;8.748;2022-11-15T12:35:25;17.90;56.30
6627;DHT22;3349;49.830;8.748;2022-11-15T12:37:55;17.60;56.70
6627;DHT22;3349;49.830;8.748;2022-11-15T12:40:33;17.50;57.90
6627;DHT22;3349;49.830;8.748;2022-11-15T12:43:36;17.40;57.50
6627;DHT22;3349;49.830;8.748;2022-11-15T12:46:05;17.00;59.10
6627;DHT22;3349;49.830;8.748;2022-11-15T12:48:58;16.80;59.60
6627;DHT22;3349;49.830;8.748;2022-11-15T12:54:59;16.50;62.30
6627;DHT22;3349;49.830;8.748;2022-11-15T12:57:38;16.20;63.20
6627;DHT22;3349;49.830;8.748;2022-11-15T13:03:28;15.90;65.70
6627;DHT22;3349;49.830;8.748;2022-11-15T13:06:05;15.80;66.60
6627;DHT22;3349;49.830;8.748;2022-11-15T13:08:41;15.70;67.80
6627;DHT22;3349;49.830;8.748;2022-11-15T13:17:30;15.60;71.90
6627;DHT22;3349;49.830;8.748;2022-11-15T13:22:50;15.40;70.50
6627;DHT22;3349;49.830;8.748;2022-11-15T13:25:24;15.30;72.60
6627;DHT22;3349;49.830;8.748;2022-11-15T13:27:54;15.30;75.10
6627;DHT22;3349;49.830;8.748;2022-11-15T13:30:24;15.20;75.20
6627;DHT22;3349;49.830;8.748;2022-11-15T13:32:53;15.20;76.60
6627;DHT22;3349;49.830;8.748;2022-11-15T13:35:22;15.20;75.00
6627;DHT22;3349;49.830;8.748;2022-11-15T13:37:49;15.10;75.90
6627;DHT22;3349;49.830;8.748;2022-11-15T13:40:24;15.10;76.90
6627;DHT22;3349;49.830;8.748;2022-11-15T13:42:53;15.10;79.10
6627;DHT22;3349;49.830;8.748;2022-11-15T13:45:20;15.10;78.60
6627;DHT22;3349;49.830;8.748;2022-11-15T13:47:54;15.10;76.60
6627;DHT22;3349;49.830;8.748;2022-11-15T13:50:23;15.00;75.70
6627;DHT22;3349;49.830;8.748;2022-11-15T13:52:50;15.00;75.60
6627;DHT22;3349;49.830;8.748;2022-11-15T13:55:19;14.90;77.50
6627;DHT22;3349;49.830;8.748;2022-11-15T13:57:48;14.80;78.90
6627;DHT22;3349;49.830;8.748;2022-11-15T14:00:32;14.70;77.80
6627;DHT22;3349;49.830;8.748;2022-11-15T14:03:12;14.70;78.90
6627;DHT22;3349;49.830;8.748;2022-11-15T14:05:40;14.60;78.70
6627;DHT22;3349;49.830;8.748;2022-11-15T14:08:22;14.60;79.50
6627;DHT22;3349;49.830;8.748;2022-11-15T14:11:06;14.50;80.90
6627;DHT22;3349;49.830;8.748;2022-11-15T14:13:33;14.50;82.00
6627;DHT22;3349;49.830;8.748;2022-11-15T14:16:13;14.50;83.00
6627;DHT22;3349;49.830;8.748;2022-11-15T14:18:45;14.40;82.60
6627;DHT22;3349;49.830;8.748;2022-11-15T14:21:12;14.40;82.80
6627;DHT22;3349;49.830;8.748;2022-11-15T14:23:39;14.40;83.80
6627;DHT22;3349;49.830;8.748;2022-11-15T14:26:10;14.40;85.30
6627;DHT22;3349;49.830;8.748;2022-11-15T14:28:37;14.50;85.10
6627;DHT22;3349;49.830;8.748;2022-11-15T14:31:11;14.70;83.80
6627;DHT22;3349;49.830;8.748;2022-11-15T14:33:39;14.70;83.20
6627;DHT22;3349;49.830;8.748;2022-11-15T14:36:12;14.70;83.30
6627;DHT22;3349;49.830;8.748;2022-11-15T14:38:40;14.80;83.30
6627;DHT22;3349;49.830;8.748;2022-11-15T14:41:16;14.80;84.50
6627;DHT22;3349;49.830;8.748;2022-11-15T14:43:43;14.80;84.20
6627;DHT22;3349;49.830;8.748;2022-11-15T14:46:10;14.70;84.00
6627;DHT22;3349;49.830;8.748;2022-11-15T14:48:36;14.70;83.40
6627;DHT22;3349;49.830;8.748;2022-11-15T14:51:09;14.60;83.30
6627;DHT22;3349;49.830;8.748;2022-11-15T14:53:36;14.70;83.20
6627;DHT22;3349;49.830;8.748;2022-11-15T14:56:03;14.60;83.10
6627;DHT22;3349;49.830;8.748;2022-11-15T14:58:29;14.50;84.00
6627;DHT22;3349;49.830;8.748;2022-11-15T15:00:56;14.40;84.40
6627;DHT22;3349;49.830;8.748;2022-11-15T15:03:23;14.30;85.30
6627;DHT22;3349;49.830;8.748;2022-11-15T15:05:49;14.30;84.00
6627;DHT22;3349;49.830;8.748;2022-11-15T15:08:17;14.20;85.00
6627;DHT22;3349;49.830;8.748;2022-11-15T15:10:45;14.00;86.60
6627;DHT22;3349;49.830;8.748;2022-11-15T15:13:16;13.90;88.30
6627;DHT22;3349;49.830;8.748;2022-11-15T15:15:44;13.80;90.40
6627;DHT22;3349;49.830;8.748;2022-11-15T15:18:10;13.70;90.80
6627;DHT22;3349;49.830;8.748;2022-11-15T15:20:38;13.60;91.30
6627;DHT22;3349;49.830;8.748;2022-11-15T15:23:07;13.60;91.50
6627;DHT22;3349;49.830;8.748;2022-11-15T15:25:36;13.60;91.50
6627;DHT22;3349;49.830;8.748;2022-11-15T15:28:03;13.50;92.00
6627;DHT22;3349;49.830;8.748;2022-11-15T15:30:30;13.40;92.20
6627;DHT22;3349;49.830;8.748;2022-11-15T15:32:57;13.40;92.10
6627;DHT22;3349;49.830;8.748;2022-11-15T15:35:29;13.30;92.40
6627;DHT22;3349;49.830;8.748;2022-11-15T15:37:56;13.30;93.00
6627;DHT22;3349;49.830;8.748;2022-11-15T15:40:24;13.20;93.70
6627;DHT22;3349;49.830;8.748;2022-11-15T15:42:53;13.20;93.70
6627;DHT22;3349;49.830;8.748;2022-11-15T15:45:19;13.20;93.90
6627;DHT22;3349;49.830;8.748;2022-11-15T15:47:47;13.10;94.20
6627;DHT22;3349;49.830;8.748;2022-11-15T15:50:22;13.10;94.30
6627;DHT22;3349;49.830;8.748;2022-11-15T15:52:50;13.00;94.30
6627;DHT22;3349;49.830;8.748;2022-11-15T15:55:17;13.00;94.20
6627;DHT22;3349;49.830;8.748;2022-11-15T15:57:44;13.00;94.40
6627;DHT22;3349;49.830;8.748;2022-11-15T16:00:14;12.90;94.50
6627;DHT22;3349;49.830;8.748;2022-11-15T16:02:41;12.90;93.80
6627;DHT22;3349;49.830;8.748;2022-11-15T16:05:08;12.90;93.80
6627;DHT22;3349;49.830;8.748;2022-11-15T16:07:36;12.90;91.90
6627;DHT22;3349;49.830;8.748;2022-11-15T16:10:16;12.90;92.30
6627;DHT22;3349;49.830;8.748;2022-11-15T16:12:43;12.80;93.30
6627;DHT22;3349;49.830;8.748;2022-11-15T16:15:10;12.80;93.70
6627;DHT22;3349;49.830;8.748;2022-11-15T16:17:40;12.70;93.30
6627;DHT22;3349;49.830;8.748;2022-11-15T16:20:20;12.70;93.00
6627;DHT22;3349;49.830;8.748;2022-11-15T16:22:49;12.70;93.10
6627;DHT22;3349;49.830;8.748;2022-11-15T16:25:15;12.70;93.70
6627;DHT22;3349;49.830;8.748;2022-11-15T16:27:42;12.60;94.10
6627;DHT22;3349;49.830;8.748;2022-11-15T16:30:13;12.60;95.00
6627;DHT22;3349;49.830;8.748;2022-11-15T16:32:41;12.50;94.80
6627;DHT22;3349;49.830;8.748;2022-11-15T16:35:10;12.50;94.90
6627;DHT22;3349;49.830;8.748;2022-11-15T16:37:39;12.40;95.10
6627;DHT22;3349;49.830;8.748;2022-11-15T16:43:00;12.40;95.90
6627;DHT22;3349;49.830;8.748;2022-11-15T16:45:29;12.40;96.40
6627;DHT22;3349;49.830;8.748;2022-11-15T16:47:58;12.30;96.90
6627;DHT22;3349;49.830;8.748;2022-11-15T16:50:27;12.30;97.30